createdAt,value
2019-03-30T00:02:17.276Z,86.20
2019-03-30T00:04:48.807Z,86.00
2019-03-30T00:07:20.285Z,86.10
2019-03-30T00:09:51.911Z,85.80
2019-03-30T00:12:23.313Z,86.10
2019-03-30T00:14:54.945Z,86.20
2019-03-30T00:17:26.869Z,86.00
2019-03-30T00:19:58.394Z,85.80
2019-03-30T00:22:29.997Z,86.30
2019-03-30T00:25:02.510Z,86.30
2019-03-30T00:27:34.100Z,86.30
2019-03-30T00:30:06.366Z,86.70
2019-03-30T00:32:37.990Z,86.50
2019-03-30T00:35:09.618Z,86.80
2019-03-30T00:37:41.168Z,86.50
2019-03-30T00:40:12.895Z,86.60
2019-03-30T00:42:44.534Z,86.60
2019-03-30T00:45:16.114Z,86.30
2019-03-30T00:47:47.633Z,86.60
2019-03-30T00:50:19.107Z,86.70
2019-03-30T00:52:50.657Z,86.80
2019-03-30T00:55:22.168Z,86.90
2019-03-30T00:57:53.598Z,86.80
2019-03-30T01:00:25.233Z,87.10
2019-03-30T01:02:56.901Z,87.00
2019-03-30T01:05:28.447Z,87.00
2019-03-30T01:08:00.245Z,87.00
2019-03-30T01:10:31.758Z,87.60
2019-03-30T01:13:03.314Z,88.00
2019-03-30T01:15:35.209Z,88.40
2019-03-30T01:18:06.901Z,89.40
2019-03-30T01:20:38.449Z,88.80
2019-03-30T01:23:10.936Z,88.90
2019-03-30T01:25:42.631Z,88.80
2019-03-30T01:28:14.223Z,89.10
2019-03-30T01:30:45.842Z,89.00
2019-03-30T01:33:17.408Z,89.40
2019-03-30T01:35:48.972Z,89.80
2019-03-30T01:38:20.503Z,90.00
2019-03-30T01:40:51.995Z,89.70
2019-03-30T01:43:23.394Z,90.00
2019-03-30T01:45:54.840Z,90.00
2019-03-30T01:48:26.322Z,90.00
2019-03-30T01:50:57.788Z,90.00
2019-03-30T01:53:29.264Z,90.00
2019-03-30T01:56:00.879Z,90.10
2019-03-30T01:58:33.108Z,90.00
2019-03-30T02:01:04.733Z,90.20
2019-03-30T02:03:36.097Z,90.40
2019-03-30T02:06:07.588Z,90.60
2019-03-30T02:08:39.184Z,90.50
2019-03-30T02:11:10.754Z,90.40
2019-03-30T02:13:42.306Z,90.50
2019-03-30T02:16:13.889Z,90.50
2019-03-30T02:18:45.436Z,90.80
2019-03-30T02:21:16.861Z,90.90
2019-03-30T02:23:48.458Z,91.00
2019-03-30T02:26:20.052Z,90.80
2019-03-30T02:28:51.522Z,90.80
2019-03-30T02:31:23.117Z,90.60
2019-03-30T02:33:54.887Z,90.70
2019-03-30T02:36:26.249Z,90.40
2019-03-30T02:38:57.725Z,90.30
2019-03-30T02:41:29.525Z,90.40
2019-03-30T02:44:01.110Z,90.60
2019-03-30T02:46:32.867Z,90.70
2019-03-30T02:49:05.133Z,90.60
2019-03-30T02:51:36.734Z,90.70
2019-03-30T02:54:08.218Z,90.70
2019-03-30T02:56:39.729Z,90.70
2019-03-30T02:59:11.534Z,90.90
2019-03-30T03:01:42.998Z,91.00
2019-03-30T03:04:14.574Z,91.00
2019-03-30T03:06:46.114Z,91.00
2019-03-30T03:09:17.597Z,91.20
2019-03-30T03:11:49.173Z,91.30
2019-03-30T03:14:20.704Z,91.40
2019-03-30T03:16:52.421Z,91.40
2019-03-30T03:19:24.124Z,91.30
2019-03-30T03:21:55.799Z,91.50
2019-03-30T03:24:27.210Z,91.10
2019-03-30T03:26:58.685Z,91.20
2019-03-30T03:29:31.603Z,91.20
2019-03-30T03:32:03.126Z,91.30
2019-03-30T03:34:34.638Z,91.50
2019-03-30T03:37:07.060Z,91.70
2019-03-30T03:39:40.064Z,91.50
2019-03-30T03:42:11.592Z,91.30
2019-03-30T03:44:43.142Z,91.30
2019-03-30T03:47:14.588Z,91.30
2019-03-30T03:49:46.292Z,91.30
2019-03-30T03:52:18.256Z,91.40
2019-03-30T03:54:49.868Z,91.50
2019-03-30T03:57:24.810Z,91.60
2019-03-30T04:00:06.723Z,91.50
2019-03-30T04:02:39.122Z,91.50
2019-03-30T04:05:11.245Z,91.50
2019-03-30T04:07:43.455Z,91.50
2019-03-30T04:10:14.865Z,91.60
2019-03-30T04:12:47.938Z,91.60
2019-03-30T04:15:26.557Z,91.40
2019-03-30T04:17:58.451Z,91.30
2019-03-30T04:20:29.895Z,91.30
2019-03-30T04:23:01.292Z,91.30
2019-03-30T04:25:32.722Z,91.20
2019-03-30T04:28:04.119Z,91.00
2019-03-30T04:30:35.660Z,90.90
2019-03-30T04:33:07.224Z,91.20
2019-03-30T04:35:39.122Z,91.20
2019-03-30T04:38:14.051Z,91.40
2019-03-30T04:40:43.608Z,90.90
2019-03-30T04:43:15.006Z,90.40
2019-03-30T04:45:46.428Z,88.10
2019-03-30T04:48:17.960Z,84.20
2019-03-30T04:50:49.401Z,80.10
2019-03-30T04:53:21.995Z,76.50
2019-03-30T04:55:53.745Z,72.30
2019-03-30T04:58:25.256Z,70.20
2019-03-30T05:00:56.663Z,69.90
2019-03-30T05:03:29.162Z,66.10
2019-03-30T05:06:00.605Z,66.30
2019-03-30T05:08:32.053Z,62.60
2019-03-30T05:11:03.689Z,62.20
2019-03-30T05:13:36.043Z,63.40
2019-03-30T05:16:07.449Z,61.60
2019-03-30T05:18:38.982Z,60.90
2019-03-30T05:21:10.604Z,61.60
2019-03-30T05:23:42.312Z,59.90
2019-03-30T05:26:13.748Z,61.70
2019-03-30T05:28:45.415Z,58.60
2019-03-30T05:31:16.939Z,60.80
2019-03-30T05:33:48.465Z,58.60
2019-03-30T05:36:19.894Z,56.50
2019-03-30T05:38:52.365Z,54.60
2019-03-30T05:41:23.953Z,55.50
2019-03-30T05:43:55.812Z,53.50
2019-03-30T05:46:27.324Z,50.10
2019-03-30T05:48:58.725Z,50.50
2019-03-30T05:51:30.116Z,54.30
2019-03-30T05:54:01.754Z,53.30
2019-03-30T05:56:33.385Z,52.50
2019-03-30T05:59:04.945Z,51.60
2019-03-30T06:01:36.750Z,52.60
2019-03-30T06:04:08.308Z,52.70
2019-03-30T06:06:39.900Z,50.90
2019-03-30T06:09:12.579Z,49.40
2019-03-30T06:11:44.060Z,51.20
2019-03-30T06:14:15.612Z,49.00
2019-03-30T06:16:47.062Z,46.50
2019-03-30T06:19:18.666Z,47.20
2019-03-30T06:21:50.196Z,47.70
2019-03-30T06:24:21.718Z,50.10
2019-03-30T06:26:53.149Z,48.30
2019-03-30T06:29:24.609Z,46.20
2019-03-30T06:31:56.229Z,45.30
2019-03-30T06:34:27.715Z,46.20
2019-03-30T06:36:59.148Z,48.10
2019-03-30T06:39:30.892Z,48.30
2019-03-30T06:42:02.482Z,45.10
2019-03-30T06:44:33.958Z,42.00
2019-03-30T06:47:05.375Z,41.90
2019-03-30T06:49:37.012Z,41.00
2019-03-30T06:52:08.450Z,43.00
2019-03-30T06:54:39.902Z,43.10
2019-03-30T06:57:11.445Z,42.00
2019-03-30T06:59:42.923Z,43.50
2019-03-30T07:02:14.934Z,41.80
2019-03-30T07:04:46.735Z,41.80
2019-03-30T07:07:19.296Z,40.90
2019-03-30T07:09:53.334Z,41.70
2019-03-30T07:12:26.277Z,41.70
2019-03-30T07:15:00.571Z,40.60
2019-03-30T07:17:32.707Z,38.50
2019-03-30T07:20:04.885Z,38.30
2019-03-30T07:22:36.422Z,37.70
2019-03-30T07:25:09.293Z,37.10
2019-03-30T07:27:40.735Z,37.40
2019-03-30T07:30:12.500Z,39.50
2019-03-30T07:32:44.004Z,40.90
2019-03-30T07:35:15.585Z,40.20
2019-03-30T07:37:46.995Z,36.50
2019-03-30T07:40:18.417Z,37.10
2019-03-30T07:42:50.000Z,38.00
2019-03-30T07:45:21.771Z,36.00
2019-03-30T07:47:53.275Z,34.60
2019-03-30T07:50:25.454Z,36.90
2019-03-30T07:52:57.114Z,35.90
2019-03-30T07:55:28.634Z,34.90
2019-03-30T07:58:00.220Z,36.50
2019-03-30T08:00:31.784Z,40.40
2019-03-30T08:03:03.318Z,43.30
2019-03-30T08:05:34.873Z,43.90
2019-03-30T08:08:06.430Z,44.00
2019-03-30T08:10:37.973Z,44.70
2019-03-30T08:13:09.445Z,43.00
2019-03-30T08:15:40.925Z,44.70
2019-03-30T08:18:12.404Z,43.00
2019-03-30T08:20:43.996Z,42.80
2019-03-30T08:23:15.385Z,40.70
2019-03-30T08:25:46.991Z,40.10
2019-03-30T08:28:18.397Z,41.30
2019-03-30T08:30:49.835Z,44.10
2019-03-30T08:33:21.269Z,39.90
2019-03-30T08:35:52.683Z,39.20
2019-03-30T08:38:24.194Z,39.10
2019-03-30T08:40:55.640Z,40.60
2019-03-30T08:43:27.054Z,44.70
2019-03-30T08:45:58.536Z,42.70
2019-03-30T08:48:29.987Z,40.20
2019-03-30T08:51:01.545Z,39.40
2019-03-30T08:53:33.045Z,39.60
2019-03-30T08:56:05.029Z,39.70
2019-03-30T08:58:36.425Z,40.70
2019-03-30T09:01:07.880Z,41.00
2019-03-30T09:03:39.265Z,38.90
2019-03-30T09:06:10.747Z,38.50
2019-03-30T09:08:42.213Z,39.50
2019-03-30T09:11:13.648Z,39.40
2019-03-30T09:13:45.088Z,40.40
2019-03-30T09:16:16.529Z,38.90
2019-03-30T09:18:47.997Z,39.40
2019-03-30T09:21:19.417Z,39.20
2019-03-30T09:23:50.838Z,42.60
2019-03-30T09:26:22.279Z,44.00
2019-03-30T09:28:53.711Z,44.20
2019-03-30T09:31:25.123Z,41.60
2019-03-30T09:33:56.492Z,41.30
2019-03-30T09:36:27.965Z,42.20
2019-03-30T09:38:59.406Z,40.80
2019-03-30T09:41:30.840Z,41.10
2019-03-30T09:44:02.214Z,40.90
2019-03-30T09:46:33.613Z,40.70
2019-03-30T09:49:05.059Z,40.90
2019-03-30T09:51:37.436Z,41.60
2019-03-30T09:54:22.776Z,43.70
2019-03-30T09:56:41.887Z,42.90
2019-03-30T09:59:13.265Z,43.50
2019-03-30T10:01:44.776Z,44.70
2019-03-30T10:04:16.165Z,44.20
2019-03-30T10:06:47.620Z,44.50
2019-03-30T10:09:19.024Z,45.50
2019-03-30T10:11:50.433Z,45.30
2019-03-30T10:14:21.876Z,45.30
2019-03-30T10:16:53.280Z,45.40
2019-03-30T10:19:27.779Z,46.50
2019-03-30T10:21:57.731Z,48.20
2019-03-30T10:24:37.925Z,49.00
2019-03-30T10:27:02.215Z,51.70
2019-03-30T10:29:33.692Z,51.70
2019-03-30T10:32:05.116Z,50.30
2019-03-30T10:34:39.446Z,50.90
2019-03-30T10:37:09.543Z,51.60
2019-03-30T10:39:40.944Z,52.60
2019-03-30T10:42:12.415Z,52.10
2019-03-30T10:44:44.300Z,53.10
2019-03-30T10:47:15.733Z,52.50
2019-03-30T10:49:47.398Z,51.70
2019-03-30T10:52:18.795Z,52.70
2019-03-30T10:54:52.834Z,53.40
2019-03-30T10:57:23.248Z,53.30
2019-03-30T10:59:54.778Z,53.20
2019-03-30T11:02:26.382Z,52.00
2019-03-30T11:04:57.860Z,53.20
2019-03-30T11:07:29.358Z,53.00
2019-03-30T11:10:00.837Z,54.30
2019-03-30T11:12:32.309Z,54.80
2019-03-30T11:15:03.855Z,54.60
2019-03-30T11:17:36.221Z,54.60
2019-03-30T11:20:08.040Z,56.00
2019-03-30T11:22:39.489Z,55.70
2019-03-30T11:25:11.098Z,56.50
2019-03-30T11:27:42.620Z,56.60
2019-03-30T11:30:14.733Z,56.60
2019-03-30T11:32:46.181Z,57.40
2019-03-30T11:35:17.908Z,56.70
2019-03-30T11:37:49.329Z,56.60
2019-03-30T11:40:20.700Z,55.90
2019-03-30T11:42:52.166Z,55.70
2019-03-30T11:45:23.648Z,55.80
2019-03-30T11:47:55.083Z,55.90
2019-03-30T11:50:26.585Z,56.50
2019-03-30T11:52:58.250Z,56.00
2019-03-30T11:55:29.686Z,55.60
2019-03-30T11:58:01.164Z,55.40
2019-03-30T12:00:32.569Z,55.70
2019-03-30T12:03:04.289Z,55.70
2019-03-30T12:05:35.684Z,54.90
2019-03-30T12:08:07.421Z,55.20
2019-03-30T12:10:38.835Z,55.50
2019-03-30T12:13:10.274Z,55.30
2019-03-30T12:15:41.718Z,54.80
2019-03-30T12:18:13.134Z,54.90
2019-03-30T12:20:44.662Z,54.80
2019-03-30T12:23:16.123Z,54.70
2019-03-30T12:25:47.642Z,54.80
2019-03-30T12:28:19.080Z,55.10
2019-03-30T12:30:50.501Z,55.60
2019-03-30T12:33:22.040Z,56.10
2019-03-30T12:35:53.441Z,56.80
2019-03-30T12:38:25.669Z,56.80
2019-03-30T12:40:57.121Z,57.30
2019-03-30T12:43:28.780Z,57.00
2019-03-30T12:46:00.205Z,56.80
2019-03-30T12:48:31.694Z,56.50
2019-03-30T12:51:03.120Z,57.10
2019-03-30T12:53:34.601Z,56.90
2019-03-30T12:56:08.864Z,56.90
2019-03-30T12:58:39.296Z,56.90
2019-03-30T13:01:10.717Z,57.00
2019-03-30T13:03:42.168Z,57.40
2019-03-30T13:06:13.641Z,57.60
2019-03-30T13:08:45.108Z,57.10
2019-03-30T13:11:16.584Z,56.80
2019-03-30T13:13:48.035Z,56.20
2019-03-30T13:16:19.525Z,55.80
2019-03-30T13:18:51.108Z,56.10
2019-03-30T13:21:22.548Z,56.20
2019-03-30T13:23:54.143Z,56.80
2019-03-30T13:26:25.924Z,56.70
2019-03-30T13:28:57.536Z,56.30
2019-03-30T13:31:28.948Z,55.80
2019-03-30T13:34:00.429Z,55.30
2019-03-30T13:36:41.967Z,55.60
2019-03-30T13:39:13.651Z,56.20
2019-03-30T13:41:45.151Z,55.60
2019-03-30T13:44:16.576Z,54.90
2019-03-30T13:46:48.078Z,53.50
2019-03-30T13:49:19.640Z,53.70
2019-03-30T13:52:02.372Z,54.00
2019-03-30T13:54:34.020Z,54.00
2019-03-30T13:57:05.737Z,54.80
2019-03-30T13:59:37.258Z,54.90
2019-03-30T14:02:08.844Z,55.50
2019-03-30T14:04:40.388Z,54.70
2019-03-30T14:07:11.895Z,54.20
2019-03-30T14:09:43.601Z,54.00
2019-03-30T14:12:15.085Z,55.20
2019-03-30T14:14:46.679Z,54.90
2019-03-30T14:17:20.115Z,55.00
2019-03-30T14:19:51.490Z,55.60
2019-03-30T14:22:23.053Z,55.60
2019-03-30T14:24:54.627Z,55.60
2019-03-30T14:27:26.097Z,55.40
2019-03-30T14:29:57.644Z,55.10
2019-03-30T14:32:29.125Z,55.00
2019-03-30T14:35:00.714Z,55.40
2019-03-30T14:37:33.393Z,55.10
2019-03-30T14:40:05.198Z,55.30
2019-03-30T14:42:37.541Z,55.70
2019-03-30T14:45:09.473Z,55.60
2019-03-30T14:47:41.216Z,55.90
2019-03-30T14:50:13.196Z,55.40
2019-03-30T14:52:44.598Z,55.60
2019-03-30T14:55:16.052Z,56.10
2019-03-30T14:57:47.561Z,56.40
2019-03-30T15:00:19.417Z,55.70
2019-03-30T15:02:51.114Z,55.30
2019-03-30T15:05:22.540Z,55.50
2019-03-30T15:07:54.062Z,55.70
2019-03-30T15:10:25.539Z,55.30
2019-03-30T15:12:57.476Z,55.80
2019-03-30T15:15:28.927Z,56.00
2019-03-30T15:18:00.413Z,56.20
2019-03-30T15:20:31.861Z,56.40
2019-03-30T15:23:03.338Z,56.20
2019-03-30T15:25:34.786Z,56.00
2019-03-30T15:28:06.415Z,55.80
2019-03-30T15:30:38.033Z,55.50
2019-03-30T15:33:10.192Z,54.00
2019-03-30T15:35:41.923Z,53.90
2019-03-30T15:38:13.393Z,53.60
2019-03-30T15:40:44.870Z,53.90
2019-03-30T15:43:16.335Z,53.90
2019-03-30T15:45:47.752Z,54.40
2019-03-30T15:48:19.690Z,54.60
2019-03-30T15:50:51.193Z,54.60
2019-03-30T15:53:22.704Z,54.60
2019-03-30T15:55:54.434Z,54.00
2019-03-30T15:58:27.198Z,53.80
2019-03-30T16:00:58.635Z,53.40
2019-03-30T16:03:30.048Z,53.90
2019-03-30T16:06:02.124Z,54.90
2019-03-30T16:08:33.746Z,55.10
2019-03-30T16:11:05.305Z,55.40
2019-03-30T16:13:36.748Z,55.40
2019-03-30T16:16:08.383Z,55.60
2019-03-30T16:18:39.844Z,55.30
2019-03-30T16:21:11.365Z,55.70
2019-03-30T16:23:43.178Z,55.30
2019-03-30T16:26:14.864Z,55.30
2019-03-30T16:28:46.561Z,54.70
2019-03-30T16:31:18.112Z,54.80
2019-03-30T16:33:50.650Z,55.00
2019-03-30T16:36:22.226Z,55.30
2019-03-30T16:38:54.561Z,55.30
2019-03-30T16:41:26.209Z,55.50
2019-03-30T16:43:57.622Z,55.40
2019-03-30T16:46:29.091Z,55.90
2019-03-30T16:49:00.568Z,55.80
2019-03-30T16:51:33.186Z,56.00
2019-03-30T16:54:04.590Z,56.40
2019-03-30T16:56:35.987Z,56.60
2019-03-30T16:59:07.534Z,56.30
2019-03-30T17:01:38.960Z,56.70
2019-03-30T17:04:10.416Z,56.90
2019-03-30T17:06:42.371Z,57.30
2019-03-30T17:09:13.905Z,57.50
2019-03-30T17:11:45.515Z,57.80
2019-03-30T17:14:16.961Z,58.00
2019-03-30T17:16:48.406Z,57.90
2019-03-30T17:19:19.933Z,58.30
2019-03-30T17:21:51.346Z,59.10
2019-03-30T17:24:22.918Z,58.70
2019-03-30T17:26:54.381Z,59.10
2019-03-30T17:29:25.785Z,59.70
2019-03-30T17:31:57.332Z,59.70
2019-03-30T17:34:30.082Z,60.00
2019-03-30T17:37:01.715Z,59.90
2019-03-30T17:39:34.089Z,60.30
2019-03-30T17:42:05.839Z,60.30
2019-03-30T17:44:37.302Z,60.40
2019-03-30T17:47:08.769Z,60.80
2019-03-30T17:49:40.189Z,60.40
2019-03-30T17:52:11.629Z,60.40
2019-03-30T17:54:43.229Z,60.80
2019-03-30T17:57:17.470Z,61.00
2019-03-30T17:59:47.880Z,61.50
2019-03-30T18:02:19.289Z,61.40
2019-03-30T18:04:50.732Z,61.70
2019-03-30T18:07:22.497Z,62.10
2019-03-30T18:09:53.978Z,62.40
2019-03-30T18:12:25.448Z,62.40
2019-03-30T18:14:57.328Z,62.40
2019-03-30T18:17:28.825Z,62.70
2019-03-30T18:20:00.454Z,62.90
2019-03-30T18:22:31.901Z,64.20
2019-03-30T18:25:03.569Z,63.40
2019-03-30T18:27:36.005Z,63.90
2019-03-30T18:30:07.875Z,64.20
2019-03-30T18:32:39.548Z,64.10
2019-03-30T18:35:11.292Z,64.40
2019-03-30T18:37:43.436Z,64.60
2019-03-30T18:40:27.609Z,65.00
2019-03-30T18:42:59.436Z,64.90
2019-03-30T18:45:31.277Z,65.20
2019-03-30T18:48:21.713Z,65.40
2019-03-30T18:50:53.177Z,66.20
2019-03-30T18:53:24.688Z,66.40
2019-03-30T18:55:56.196Z,66.90
2019-03-30T18:58:40.972Z,67.20
2019-03-30T19:01:01.940Z,67.60
2019-03-30T19:03:33.430Z,67.40
2019-03-30T19:06:05.359Z,67.60
2019-03-30T19:08:36.829Z,68.00
2019-03-30T19:11:08.429Z,68.30
2019-03-30T19:13:39.932Z,68.60
2019-03-30T19:16:11.509Z,69.00
2019-03-30T19:18:42.910Z,69.50
2019-03-30T19:21:14.436Z,69.70
2019-03-30T19:23:45.929Z,70.30
2019-03-30T19:26:17.349Z,70.90
2019-03-30T19:28:56.258Z,71.30
2019-03-30T19:31:22.000Z,72.00
2019-03-30T19:33:53.456Z,72.10
2019-03-30T19:36:25.021Z,72.60
2019-03-30T19:38:56.625Z,73.40
2019-03-30T19:41:28.031Z,73.80
2019-03-30T19:43:59.519Z,74.20
2019-03-30T19:46:30.917Z,75.00
2019-03-30T19:49:02.350Z,75.90
2019-03-30T19:51:34.173Z,77.10
2019-03-30T19:54:06.035Z,77.00
2019-03-30T19:56:37.474Z,77.90
2019-03-30T19:59:11.086Z,78.80
2019-03-30T20:01:42.242Z,79.40
2019-03-30T20:04:13.910Z,80.10
2019-03-30T20:06:45.400Z,80.60
2019-03-30T20:09:20.601Z,81.20
2019-03-30T20:11:50.422Z,82.00
2019-03-30T20:14:21.854Z,82.60
2019-03-30T20:16:53.514Z,83.30
2019-03-30T20:19:25.016Z,83.50
2019-03-30T20:21:57.430Z,84.10
2019-03-30T20:24:29.302Z,84.60
2019-03-30T20:27:00.833Z,84.70
2019-03-30T20:29:32.302Z,85.40
2019-03-30T20:32:03.741Z,86.10
2019-03-30T20:34:35.367Z,86.30
2019-03-30T20:37:08.168Z,86.90
2019-03-30T20:39:39.663Z,87.20
2019-03-30T20:42:11.117Z,87.50
2019-03-30T20:44:44.960Z,87.90
2019-03-30T20:47:17.931Z,88.10
2019-03-30T20:49:49.604Z,88.90
2019-03-30T20:52:21.312Z,88.80
2019-03-30T20:54:52.787Z,89.00
2019-03-30T20:57:24.184Z,89.30
2019-03-30T21:00:07.140Z,89.70
2019-03-30T21:02:42.525Z,90.00
2019-03-30T21:05:22.484Z,89.80
2019-03-30T21:08:00.654Z,90.10
2019-03-30T21:10:33.254Z,90.30
2019-03-30T21:13:04.877Z,90.30
2019-03-30T21:15:36.634Z,90.40
2019-03-30T21:18:08.603Z,90.50
2019-03-30T21:20:40.255Z,90.50
2019-03-30T21:23:11.931Z,90.60
2019-03-30T21:25:43.380Z,90.70
2019-03-30T21:28:14.828Z,90.60
2019-03-30T21:30:46.379Z,90.60
2019-03-30T21:33:17.911Z,90.60
2019-03-30T21:35:49.613Z,90.60
2019-03-30T21:38:21.092Z,90.60
2019-03-30T21:40:52.632Z,90.60
2019-03-30T21:43:24.050Z,90.60
2019-03-30T21:45:55.469Z,90.60
2019-03-30T21:48:26.966Z,90.50
2019-03-30T21:50:58.399Z,90.40
2019-03-30T21:53:30.006Z,90.40
2019-03-30T21:56:01.617Z,90.40
2019-03-30T21:58:33.020Z,90.30
2019-03-30T22:01:04.583Z,90.40
2019-03-30T22:03:36.123Z,90.40
2019-03-30T22:06:07.846Z,90.40
2019-03-30T22:08:39.599Z,90.40
2019-03-30T22:11:11.339Z,90.40
2019-03-30T22:13:44.209Z,90.40
2019-03-30T22:16:15.712Z,90.40
2019-03-30T22:18:47.181Z,90.50
2019-03-30T22:21:18.760Z,90.50
2019-03-30T22:23:50.213Z,90.40
2019-03-30T22:26:24.619Z,90.50
2019-03-30T22:28:55.100Z,90.60
2019-03-30T22:31:26.609Z,90.30
2019-03-30T22:33:58.037Z,90.70
2019-03-30T22:36:29.522Z,90.70
2019-03-30T22:39:00.931Z,90.50
2019-03-30T22:41:34.158Z,90.60
2019-03-30T22:44:05.783Z,90.60
2019-03-30T22:46:37.396Z,90.80
2019-03-30T22:49:08.849Z,90.80
2019-03-30T22:51:40.575Z,90.90
2019-03-30T22:54:11.987Z,91.00
2019-03-30T22:56:44.601Z,91.10
2019-03-30T22:59:15.989Z,91.20
2019-03-30T23:01:47.420Z,91.30
2019-03-30T23:04:19.071Z,91.30
2019-03-30T23:06:50.528Z,91.30
2019-03-30T23:09:22.217Z,91.40
2019-03-30T23:11:53.709Z,91.40
2019-03-30T23:14:25.192Z,91.30
2019-03-30T23:16:56.606Z,91.40
2019-03-30T23:19:28.077Z,91.60
2019-03-30T23:21:59.541Z,91.60
2019-03-30T23:24:31.025Z,91.60
2019-03-30T23:27:02.588Z,91.60
2019-03-30T23:29:34.122Z,91.70
2019-03-30T23:32:05.597Z,91.80
2019-03-30T23:34:36.989Z,91.90
2019-03-30T23:37:08.701Z,91.90
2019-03-30T23:39:40.425Z,91.90
2019-03-30T23:42:11.980Z,91.90
2019-03-30T23:44:43.441Z,92.00
2019-03-30T23:47:15.175Z,92.10
2019-03-30T23:49:46.592Z,92.10
2019-03-30T23:52:18.177Z,92.10
2019-03-30T23:54:49.658Z,92.20
2019-03-30T23:57:21.112Z,92.30
2019-03-30T23:59:52.581Z,92.30
